sensor_id;sensor_type;location;lat;lon;timestamp;pressure;altitude;pressure_sealevel;temperature;humidity
5952;BME280;3001;42.622;23.194;2023-02-12T00:01:35;92176.75;;;0.54;50.51
5952;BME280;3001;42.622;23.194;2023-02-12T00:04:02;92162.06;;;0.50;54.40
5952;BME280;3001;42.622;23.194;2023-02-12T00:06:29;92172.84;;;0.52;51.41
5952;BME280;3001;42.622;23.194;2023-02-12T00:08:56;92172.84;;;0.52;47.74
5952;BME280;3001;42.622;23.194;2023-02-12T00:11:26;92169.97;;;0.60;51.21
5952;BME280;3001;42.622;23.194;2023-02-12T00:13:53;92161.53;;;0.59;53.34
5952;BME280;3001;42.622;23.194;2023-02-12T00:16:22;92165.31;;;0.57;53.92
5952;BME280;3001;42.622;23.194;2023-02-12T00:18:51;92164.06;;;0.48;52.17
5952;BME280;3001;42.622;23.194;2023-02-12T00:21:18;92169.06;;;0.43;55.98
5952;BME280;3001;42.622;23.194;2023-02-12T00:23:45;92173.81;;;0.28;51.81
5952;BME280;3001;42.622;23.194;2023-02-12T00:26:14;92163.50;;;0.34;50.17
5952;BME280;3001;42.622;23.194;2023-02-12T00:28:42;92156.06;;;0.44;50.44
5952;BME280;3001;42.622;23.194;2023-02-12T00:31:11;92156.84;;;0.45;50.87
5952;BME280;3001;42.622;23.194;2023-02-12T00:33:38;92164.97;;;0.53;49.73
5952;BME280;3001;42.622;23.194;2023-02-12T00:36:06;92155.78;;;0.64;51.30
5952;BME280;3001;42.622;23.194;2023-02-12T00:38:33;92160.22;;;0.80;48.08
5952;BME280;3001;42.622;23.194;2023-02-12T00:41:00;92162.13;;;0.73;48.38
5952;BME280;3001;42.622;23.194;2023-02-12T00:43:27;92153.00;;;0.77;50.60
5952;BME280;3001;42.622;23.194;2023-02-12T00:45:55;92133.44;;;0.71;52.65
5952;BME280;3001;42.622;23.194;2023-02-12T00:48:22;92134.53;;;0.63;50.44
5952;BME280;3001;42.622;23.194;2023-02-12T00:50:49;92136.56;;;0.73;48.10
5952;BME280;3001;42.622;23.194;2023-02-12T00:53:16;92127.88;;;0.74;52.47
5952;BME280;3001;42.622;23.194;2023-02-12T00:55:44;92141.56;;;0.79;53.12
5952;BME280;3001;42.622;23.194;2023-02-12T00:58:11;92142.00;;;0.76;51.47
5952;BME280;3001;42.622;23.194;2023-02-12T01:00:37;92141.00;;;0.66;52.01
5952;BME280;3001;42.622;23.194;2023-02-12T01:03:05;92130.06;;;0.59;51.17
5952;BME280;3001;42.622;23.194;2023-02-12T01:05:32;92126.31;;;0.50;50.95
5952;BME280;3001;42.622;23.194;2023-02-12T01:07:59;92123.19;;;0.48;55.54
5952;BME280;3001;42.622;23.194;2023-02-12T01:10:26;92117.16;;;0.42;57.44
5952;BME280;3001;42.622;23.194;2023-02-12T01:12:53;92105.94;;;0.32;59.35
5952;BME280;3001;42.622;23.194;2023-02-12T01:15:20;92106.91;;;0.19;56.25
5952;BME280;3001;42.622;23.194;2023-02-12T01:17:47;92111.22;;;0.19;56.62
5952;BME280;3001;42.622;23.194;2023-02-12T01:20:19;92108.34;;;0.15;58.72
5952;BME280;3001;42.622;23.194;2023-02-12T01:22:46;92121.22;;;0.09;60.41
5952;BME280;3001;42.622;23.194;2023-02-12T01:25:13;92122.13;;;0.14;52.98
5952;BME280;3001;42.622;23.194;2023-02-12T01:27:40;92123.69;;;0.27;57.15
5952;BME280;3001;42.622;23.194;2023-02-12T01:30:11;92111.47;;;0.17;60.11
5952;BME280;3001;42.622;23.194;2023-02-12T01:32:38;92098.22;;;0.09;58.62
5952;BME280;3001;42.622;23.194;2023-02-12T01:35:07;92122.56;;;0.11;58.91
5952;BME280;3001;42.622;23.194;2023-02-12T01:37:36;92115.09;;;0.10;61.37
5952;BME280;3001;42.622;23.194;2023-02-12T01:40:04;92106.19;;;0.01;57.62
5952;BME280;3001;42.622;23.194;2023-02-12T01:42:31;92108.00;;;0.12;54.70
5952;BME280;3001;42.622;23.194;2023-02-12T01:48:06;92107.38;;;0.28;56.71
5952;BME280;3001;42.622;23.194;2023-02-12T01:50:33;92111.59;;;0.34;58.53
5952;BME280;3001;42.622;23.194;2023-02-12T01:53:02;92103.72;;;0.35;54.54
5952;BME280;3001;42.622;23.194;2023-02-12T01:55:29;92094.28;;;0.36;58.33
5952;BME280;3001;42.622;23.194;2023-02-12T01:57:55;92089.59;;;0.33;58.23
5952;BME280;3001;42.622;23.194;2023-02-12T02:00:23;92081.59;;;0.29;62.38
5952;BME280;3001;42.622;23.194;2023-02-12T02:02:52;92088.84;;;0.44;55.74
5952;BME280;3001;42.622;23.194;2023-02-12T02:05:22;92082.50;;;0.46;56.39
5952;BME280;3001;42.622;23.194;2023-02-12T02:07:49;92103.75;;;0.47;58.06
5952;BME280;3001;42.622;23.194;2023-02-12T02:10:17;92098.19;;;0.50;58.69
5952;BME280;3001;42.622;23.194;2023-02-12T02:12:44;92082.19;;;0.43;57.42
5952;BME280;3001;42.622;23.194;2023-02-12T02:15:29;92101.19;;;0.35;55.94
5952;BME280;3001;42.622;23.194;2023-02-12T02:18:00;92105.50;;;0.35;56.63
5952;BME280;3001;42.622;23.194;2023-02-12T02:20:59;92099.28;;;0.42;59.97
5952;BME280;3001;42.622;23.194;2023-02-12T02:23:54;92102.94;;;0.35;57.38
5952;BME280;3001;42.622;23.194;2023-02-12T02:29:31;92098.41;;;0.48;62.45
5952;BME280;3001;42.622;23.194;2023-02-12T02:32:07;92090.06;;;0.41;60.47
5952;BME280;3001;42.622;23.194;2023-02-12T02:34:41;92080.84;;;0.40;65.37
5952;BME280;3001;42.622;23.194;2023-02-12T02:37:16;92082.50;;;0.35;65.83
5952;BME280;3001;42.622;23.194;2023-02-12T02:39:48;92078.72;;;0.26;65.02
5952;BME280;3001;42.622;23.194;2023-02-12T02:42:21;92071.97;;;0.31;63.55
5952;BME280;3001;42.622;23.194;2023-02-12T02:44:53;92084.41;;;0.39;63.46
5952;BME280;3001;42.622;23.194;2023-02-12T02:47:25;92083.06;;;0.48;65.39
5952;BME280;3001;42.622;23.194;2023-02-12T02:49:59;92078.84;;;0.54;62.75
5952;BME280;3001;42.622;23.194;2023-02-12T02:52:34;92088.31;;;0.53;64.32
5952;BME280;3001;42.622;23.194;2023-02-12T02:55:06;92088.88;;;0.55;60.74
5952;BME280;3001;42.622;23.194;2023-02-12T02:57:37;92092.63;;;0.64;63.58
5952;BME280;3001;42.622;23.194;2023-02-12T03:00:12;92090.97;;;0.70;61.20
5952;BME280;3001;42.622;23.194;2023-02-12T03:02:44;92092.09;;;0.74;59.47
5952;BME280;3001;42.622;23.194;2023-02-12T03:05:18;92088.41;;;0.81;60.51
5952;BME280;3001;42.622;23.194;2023-02-12T03:07:49;92084.41;;;0.85;65.35
5952;BME280;3001;42.622;23.194;2023-02-12T03:10:19;92096.31;;;0.91;61.59
5952;BME280;3001;42.622;23.194;2023-02-12T03:12:51;92094.19;;;1.00;63.87
5952;BME280;3001;42.622;23.194;2023-02-12T03:15:24;92090.53;;;0.96;62.06
5952;BME280;3001;42.622;23.194;2023-02-12T03:17:57;92088.97;;;1.06;63.66
5952;BME280;3001;42.622;23.194;2023-02-12T03:20:27;92088.53;;;0.98;60.46
5952;BME280;3001;42.622;23.194;2023-02-12T03:22:57;92084.94;;;1.10;59.77
5952;BME280;3001;42.622;23.194;2023-02-12T03:25:30;92090.50;;;1.19;62.48
5952;BME280;3001;42.622;23.194;2023-02-12T03:28:02;92079.69;;;1.28;64.13
5952;BME280;3001;42.622;23.194;2023-02-12T03:30:36;92076.69;;;1.31;58.56
5952;BME280;3001;42.622;23.194;2023-02-12T03:33:15;92070.44;;;1.39;58.59
5952;BME280;3001;42.622;23.194;2023-02-12T03:35:51;92072.66;;;1.47;63.30
5952;BME280;3001;42.622;23.194;2023-02-12T03:38:27;92071.81;;;1.58;60.49
5952;BME280;3001;42.622;23.194;2023-02-12T03:41:01;92075.84;;;1.54;60.86
5952;BME280;3001;42.622;23.194;2023-02-12T03:43:32;92054.19;;;1.45;61.32
5952;BME280;3001;42.622;23.194;2023-02-12T03:46:09;92062.50;;;1.52;62.70
5952;BME280;3001;42.622;23.194;2023-02-12T03:48:41;92067.16;;;1.55;64.65
5952;BME280;3001;42.622;23.194;2023-02-12T03:51:16;92071.22;;;1.39;65.64
5952;BME280;3001;42.622;23.194;2023-02-12T03:53:46;92057.88;;;1.37;61.65
5952;BME280;3001;42.622;23.194;2023-02-12T03:56:18;92066.75;;;1.46;61.00
5952;BME280;3001;42.622;23.194;2023-02-12T03:58:45;92060.41;;;1.49;61.85
5952;BME280;3001;42.622;23.194;2023-02-12T04:01:12;92058.84;;;1.48;61.68
5952;BME280;3001;42.622;23.194;2023-02-12T04:03:41;92062.59;;;1.57;61.43
5952;BME280;3001;42.622;23.194;2023-02-12T04:06:18;92064.03;;;1.64;59.35
5952;BME280;3001;42.622;23.194;2023-02-12T04:08:45;92054.69;;;1.58;56.08
5952;BME280;3001;42.622;23.194;2023-02-12T04:11:19;92057.31;;;1.74;57.18
5952;BME280;3001;42.622;23.194;2023-02-12T04:14:00;92061.03;;;1.83;58.64
5952;BME280;3001;42.622;23.194;2023-02-12T04:16:36;92061.69;;;1.90;58.37
5952;BME280;3001;42.622;23.194;2023-02-12T04:19:08;92071.28;;;1.83;58.40
5952;BME280;3001;42.622;23.194;2023-02-12T04:21:44;92072.25;;;1.94;57.68
5952;BME280;3001;42.622;23.194;2023-02-12T04:24:21;92078.69;;;1.96;58.33
5952;BME280;3001;42.622;23.194;2023-02-12T04:26:54;92073.97;;;1.88;57.85
5952;BME280;3001;42.622;23.194;2023-02-12T04:29:32;92073.25;;;1.93;55.58
5952;BME280;3001;42.622;23.194;2023-02-12T04:32:08;92084.91;;;2.00;58.62
5952;BME280;3001;42.622;23.194;2023-02-12T04:34:43;92077.16;;;1.95;58.89
5952;BME280;3001;42.622;23.194;2023-02-12T04:37:15;92080.97;;;1.81;60.16
5952;BME280;3001;42.622;23.194;2023-02-12T04:39:43;92078.34;;;1.76;59.35
5952;BME280;3001;42.622;23.194;2023-02-12T04:42:10;92074.69;;;1.72;59.17
5952;BME280;3001;42.622;23.194;2023-02-12T04:44:41;92089.81;;;1.74;57.54
5952;BME280;3001;42.622;23.194;2023-02-12T04:47:09;92081.81;;;1.70;55.89
5952;BME280;3001;42.622;23.194;2023-02-12T04:49:38;92081.03;;;1.70;54.74
5952;BME280;3001;42.622;23.194;2023-02-12T04:52:05;92098.72;;;1.71;55.93
5952;BME280;3001;42.622;23.194;2023-02-12T04:54:32;92093.94;;;1.75;60.01
5952;BME280;3001;42.622;23.194;2023-02-12T04:56:58;92104.50;;;1.78;58.26
5952;BME280;3001;42.622;23.194;2023-02-12T04:59:25;92102.31;;;1.70;55.07
5952;BME280;3001;42.622;23.194;2023-02-12T05:01:52;92094.72;;;1.75;60.13
5952;BME280;3001;42.622;23.194;2023-02-12T05:04:19;92103.47;;;1.79;59.44
5952;BME280;3001;42.622;23.194;2023-02-12T05:06:47;92089.38;;;1.77;58.70
5952;BME280;3001;42.622;23.194;2023-02-12T05:09:16;92110.63;;;1.77;56.20
5952;BME280;3001;42.622;23.194;2023-02-12T05:11:44;92116.28;;;1.79;59.54
5952;BME280;3001;42.622;23.194;2023-02-12T05:14:11;92106.41;;;1.71;58.81
5952;BME280;3001;42.622;23.194;2023-02-12T05:16:38;92107.59;;;1.80;57.56
5952;BME280;3001;42.622;23.194;2023-02-12T05:19:04;92111.59;;;1.88;61.65
5952;BME280;3001;42.622;23.194;2023-02-12T05:21:33;92121.69;;;1.94;61.58
5952;BME280;3001;42.622;23.194;2023-02-12T05:24:02;92127.28;;;1.91;60.68
5952;BME280;3001;42.622;23.194;2023-02-12T05:26:28;92126.19;;;1.87;62.18
5952;BME280;3001;42.622;23.194;2023-02-12T05:28:55;92131.31;;;1.87;64.12
5952;BME280;3001;42.622;23.194;2023-02-12T05:31:22;92132.44;;;1.80;62.47
5952;BME280;3001;42.622;23.194;2023-02-12T05:33:49;92137.22;;;1.76;63.36
5952;BME280;3001;42.622;23.194;2023-02-12T05:36:19;92145.25;;;1.80;66.01
5952;BME280;3001;42.622;23.194;2023-02-12T05:38:46;92147.03;;;1.79;63.52
5952;BME280;3001;42.622;23.194;2023-02-12T05:41:16;92156.53;;;1.67;65.84
5952;BME280;3001;42.622;23.194;2023-02-12T05:43:43;92160.66;;;1.68;65.31
5952;BME280;3001;42.622;23.194;2023-02-12T05:46:10;92159.41;;;1.71;65.55
5952;BME280;3001;42.622;23.194;2023-02-12T05:48:38;92165.53;;;1.70;66.29
5952;BME280;3001;42.622;23.194;2023-02-12T05:51:08;92168.31;;;1.68;68.25
5952;BME280;3001;42.622;23.194;2023-02-12T05:53:36;92177.69;;;1.52;69.25
5952;BME280;3001;42.622;23.194;2023-02-12T05:56:07;92175.50;;;1.44;69.32
5952;BME280;3001;42.622;23.194;2023-02-12T05:58:36;92165.03;;;1.45;69.02
5952;BME280;3001;42.622;23.194;2023-02-12T06:01:08;92159.81;;;1.40;69.73
5952;BME280;3001;42.622;23.194;2023-02-12T06:03:35;92163.47;;;1.33;70.84
5952;BME280;3001;42.622;23.194;2023-02-12T06:06:02;92162.56;;;1.27;70.72
5952;BME280;3001;42.622;23.194;2023-02-12T06:08:29;92161.03;;;1.26;71.46
5952;BME280;3001;42.622;23.194;2023-02-12T06:10:59;92172.16;;;1.32;71.44
5952;BME280;3001;42.622;23.194;2023-02-12T06:13:25;92160.25;;;1.26;72.16
5952;BME280;3001;42.622;23.194;2023-02-12T06:15:53;92166.47;;;1.41;72.08
5952;BME280;3001;42.622;23.194;2023-02-12T06:18:20;92154.78;;;1.45;71.17
5952;BME280;3001;42.622;23.194;2023-02-12T06:20:47;92147.66;;;1.36;72.73
5952;BME280;3001;42.622;23.194;2023-02-12T06:23:15;92151.34;;;1.17;74.62
5952;BME280;3001;42.622;23.194;2023-02-12T06:25:41;92153.91;;;1.05;75.66
5952;BME280;3001;42.622;23.194;2023-02-12T06:28:08;92147.78;;;1.06;75.28
5952;BME280;3001;42.622;23.194;2023-02-12T06:30:35;92146.78;;;1.19;76.42
5952;BME280;3001;42.622;23.194;2023-02-12T06:33:03;92148.34;;;1.20;77.50
5952;BME280;3001;42.622;23.194;2023-02-12T06:35:29;92143.38;;;1.13;77.97
5952;BME280;3001;42.622;23.194;2023-02-12T06:37:56;92145.34;;;1.11;78.12
5952;BME280;3001;42.622;23.194;2023-02-12T06:40:23;92135.44;;;1.15;78.63
5952;BME280;3001;42.622;23.194;2023-02-12T06:42:50;92127.31;;;1.06;80.48
5952;BME280;3001;42.622;23.194;2023-02-12T06:45:16;92138.81;;;1.15;80.24
5952;BME280;3001;42.622;23.194;2023-02-12T06:47:43;92133.00;;;1.20;81.25
5952;BME280;3001;42.622;23.194;2023-02-12T06:50:11;92133.88;;;1.25;80.84
5952;BME280;3001;42.622;23.194;2023-02-12T06:52:38;92131.75;;;1.34;79.73
5952;BME280;3001;42.622;23.194;2023-02-12T06:55:05;92134.09;;;1.35;80.68
5952;BME280;3001;42.622;23.194;2023-02-12T06:57:32;92133.88;;;1.37;80.17
5952;BME280;3001;42.622;23.194;2023-02-12T06:59:58;92137.97;;;1.38;79.10
5952;BME280;3001;42.622;23.194;2023-02-12T07:02:25;92133.72;;;1.55;77.99
5952;BME280;3001;42.622;23.194;2023-02-12T07:04:52;92137.25;;;1.65;78.02
5952;BME280;3001;42.622;23.194;2023-02-12T07:07:20;92125.56;;;1.69;77.66
5952;BME280;3001;42.622;23.194;2023-02-12T07:09:47;92124.09;;;1.73;77.59
5952;BME280;3001;42.622;23.194;2023-02-12T07:12:14;92130.19;;;1.83;77.07
5952;BME280;3001;42.622;23.194;2023-02-12T07:14:41;92123.47;;;1.66;75.96
5952;BME280;3001;42.622;23.194;2023-02-12T07:17:07;92124.56;;;1.70;76.29
5952;BME280;3001;42.622;23.194;2023-02-12T07:19:34;92129.81;;;1.64;76.95
5952;BME280;3001;42.622;23.194;2023-02-12T07:22:01;92122.56;;;1.61;76.60
5952;BME280;3001;42.622;23.194;2023-02-12T07:24:29;92130.00;;;1.73;77.55
5952;BME280;3001;42.622;23.194;2023-02-12T07:26:56;92129.09;;;1.79;77.99
5952;BME280;3001;42.622;23.194;2023-02-12T07:29:23;92132.94;;;1.66;76.77
5952;BME280;3001;42.622;23.194;2023-02-12T07:31:49;92128.59;;;1.55;77.39
5952;BME280;3001;42.622;23.194;2023-02-12T07:34:16;92132.72;;;1.56;77.86
5952;BME280;3001;42.622;23.194;2023-02-12T07:36:43;92125.13;;;1.61;77.62
5952;BME280;3001;42.622;23.194;2023-02-12T07:39:10;92115.81;;;1.55;77.73
5952;BME280;3001;42.622;23.194;2023-02-12T07:41:38;92121.78;;;1.71;76.55
5952;BME280;3001;42.622;23.194;2023-02-12T07:44:06;92122.50;;;1.83;76.55
5952;BME280;3001;42.622;23.194;2023-02-12T07:46:36;92127.19;;;1.86;76.39
5952;BME280;3001;42.622;23.194;2023-02-12T07:49:05;92134.28;;;1.96;75.75
5952;BME280;3001;42.622;23.194;2023-02-12T07:51:33;92141.19;;;1.95;77.57
5952;BME280;3001;42.622;23.194;2023-02-12T07:54:00;92139.72;;;1.99;77.25
5952;BME280;3001;42.622;23.194;2023-02-12T07:56:29;92138.00;;;1.88;76.90
5952;BME280;3001;42.622;23.194;2023-02-12T07:58:59;92147.19;;;2.01;77.44
5952;BME280;3001;42.622;23.194;2023-02-12T08:01:28;92137.78;;;2.18;77.38
5952;BME280;3001;42.622;23.194;2023-02-12T08:03:58;92140.22;;;2.13;77.75
5952;BME280;3001;42.622;23.194;2023-02-12T08:06:26;92139.53;;;2.17;78.11
5952;BME280;3001;42.622;23.194;2023-02-12T08:08:54;92143.31;;;2.26;77.41
5952;BME280;3001;42.622;23.194;2023-02-12T08:11:22;92139.53;;;2.17;78.01
5952;BME280;3001;42.622;23.194;2023-02-12T08:13:50;92145.63;;;2.28;78.06
5952;BME280;3001;42.622;23.194;2023-02-12T08:16:19;92147.66;;;2.42;76.52
5952;BME280;3001;42.622;23.194;2023-02-12T08:18:47;92144.50;;;2.52;77.66
5952;BME280;3001;42.622;23.194;2023-02-12T08:21:15;92148.91;;;2.40;77.21
5952;BME280;3001;42.622;23.194;2023-02-12T08:23:43;92147.19;;;2.29;77.08
5952;BME280;3001;42.622;23.194;2023-02-12T08:26:12;92151.44;;;2.23;76.75
5952;BME280;3001;42.622;23.194;2023-02-12T08:28:41;92165.25;;;2.22;77.48
5952;BME280;3001;42.622;23.194;2023-02-12T08:31:11;92162.25;;;2.25;78.36
5952;BME280;3001;42.622;23.194;2023-02-12T08:33:39;92164.94;;;2.47;77.00
5952;BME280;3001;42.622;23.194;2023-02-12T08:36:08;92170.84;;;2.47;76.57
5952;BME280;3001;42.622;23.194;2023-02-12T08:38:36;92168.72;;;2.44;77.62
5952;BME280;3001;42.622;23.194;2023-02-12T08:41:04;92166.34;;;2.54;77.54
5952;BME280;3001;42.622;23.194;2023-02-12T08:43:32;92166.28;;;2.49;77.93
5952;BME280;3001;42.622;23.194;2023-02-12T08:46:03;92178.94;;;2.56;77.83
5952;BME280;3001;42.622;23.194;2023-02-12T08:48:30;92179.94;;;2.55;78.21
5952;BME280;3001;42.622;23.194;2023-02-12T08:51:04;92181.19;;;2.52;77.93
5952;BME280;3001;42.622;23.194;2023-02-12T08:53:32;92181.81;;;2.59;77.03
5952;BME280;3001;42.622;23.194;2023-02-12T08:55:58;92182.19;;;2.51;77.32
5952;BME280;3001;42.622;23.194;2023-02-12T08:58:25;92190.81;;;2.45;79.01
5952;BME280;3001;42.622;23.194;2023-02-12T09:00:52;92185.31;;;2.53;78.58
5952;BME280;3001;42.622;23.194;2023-02-12T09:03:19;92193.06;;;2.42;77.74
5952;BME280;3001;42.622;23.194;2023-02-12T09:05:45;92196.84;;;2.39;79.53
5952;BME280;3001;42.622;23.194;2023-02-12T09:08:14;92196.75;;;2.34;78.95
5952;BME280;3001;42.622;23.194;2023-02-12T09:10:41;92202.47;;;2.53;78.77
5952;BME280;3001;42.622;23.194;2023-02-12T09:13:09;92194.28;;;2.67;78.53
5952;BME280;3001;42.622;23.194;2023-02-12T09:15:37;92202.25;;;2.71;78.38
5952;BME280;3001;42.622;23.194;2023-02-12T09:18:04;92210.75;;;2.71;77.48
5952;BME280;3001;42.622;23.194;2023-02-12T09:20:32;92212.63;;;2.76;77.92
5952;BME280;3001;42.622;23.194;2023-02-12T09:22:59;92214.22;;;2.65;77.99
5952;BME280;3001;42.622;23.194;2023-02-12T09:25:27;92223.25;;;2.68;79.06
5952;BME280;3001;42.622;23.194;2023-02-12T09:27:54;92228.94;;;2.70;78.05
5952;BME280;3001;42.622;23.194;2023-02-12T09:30:21;92232.41;;;2.64;78.14
5952;BME280;3001;42.622;23.194;2023-02-12T09:32:48;92230.88;;;2.63;77.79
5952;BME280;3001;42.622;23.194;2023-02-12T09:35:14;92224.72;;;2.64;78.99
5952;BME280;3001;42.622;23.194;2023-02-12T09:37:42;92219.72;;;2.57;79.44
5952;BME280;3001;42.622;23.194;2023-02-12T09:40:17;92208.72;;;2.57;80.10
5952;BME280;3001;42.622;23.194;2023-02-12T09:43:07;92226.28;;;2.65;78.97
5952;BME280;3001;42.622;23.194;2023-02-12T09:45:39;92222.56;;;2.72;78.92
5952;BME280;3001;42.622;23.194;2023-02-12T09:48:25;92225.81;;;2.68;79.21
5952;BME280;3001;42.622;23.194;2023-02-12T09:50:56;92227.84;;;2.66;79.75
5952;BME280;3001;42.622;23.194;2023-02-12T09:53:28;92230.97;;;2.84;78.76
5952;BME280;3001;42.622;23.194;2023-02-12T09:55:56;92222.19;;;2.80;78.05
5952;BME280;3001;42.622;23.194;2023-02-12T09:58:32;92229.88;;;2.80;79.53
5952;BME280;3001;42.622;23.194;2023-02-12T10:01:09;92226.94;;;2.88;78.70
5952;BME280;3001;42.622;23.194;2023-02-12T10:03:37;92224.75;;;2.80;80.32
5952;BME280;3001;42.622;23.194;2023-02-12T10:06:06;92227.28;;;3.08;79.41
5952;BME280;3001;42.622;23.194;2023-02-12T10:08:47;92223.00;;;3.14;78.35
5952;BME280;3001;42.622;23.194;2023-02-12T10:11:27;92231.56;;;3.19;79.22
5952;BME280;3001;42.622;23.194;2023-02-12T10:14:03;92228.38;;;3.29;78.88
5952;BME280;3001;42.622;23.194;2023-02-12T10:16:37;92231.25;;;3.32;78.50
5952;BME280;3001;42.622;23.194;2023-02-12T10:19:19;92234.44;;;3.39;78.58
5952;BME280;3001;42.622;23.194;2023-02-12T10:21:56;92238.88;;;3.43;77.88
5952;BME280;3001;42.622;23.194;2023-02-12T10:24:42;92238.72;;;3.33;78.90
5952;BME280;3001;42.622;23.194;2023-02-12T10:27:14;92232.19;;;3.42;78.76
5952;BME280;3001;42.622;23.194;2023-02-12T10:29:44;92228.75;;;3.37;78.63
5952;BME280;3001;42.622;23.194;2023-02-12T10:32:20;92218.09;;;3.29;78.61
5952;BME280;3001;42.622;23.194;2023-02-12T10:34:49;92227.13;;;3.47;77.89
5952;BME280;3001;42.622;23.194;2023-02-12T10:37:24;92216.69;;;3.54;77.67
5952;BME280;3001;42.622;23.194;2023-02-12T10:39:55;92231.16;;;3.60;78.29
5952;BME280;3001;42.622;23.194;2023-02-12T10:42:32;92235.34;;;3.66;77.03
5952;BME280;3001;42.622;23.194;2023-02-12T10:45:02;92232.09;;;3.54;77.37
5952;BME280;3001;42.622;23.194;2023-02-12T10:47:29;92228.72;;;3.53;77.43
5952;BME280;3001;42.622;23.194;2023-02-12T10:49:57;92234.19;;;3.57;77.66
5952;BME280;3001;42.622;23.194;2023-02-12T10:52:34;92228.25;;;3.56;76.80
5952;BME280;3001;42.622;23.194;2023-02-12T10:55:22;92223.59;;;3.70;78.75
5952;BME280;3001;42.622;23.194;2023-02-12T10:57:49;92227.25;;;3.95;78.80
5952;BME280;3001;42.622;23.194;2023-02-12T11:00:24;92226.31;;;4.23;77.70
5952;BME280;3001;42.622;23.194;2023-02-12T11:03:01;92231.44;;;4.66;76.43
5952;BME280;3001;42.622;23.194;2023-02-12T11:05:30;92228.53;;;4.84;75.24
5952;BME280;3001;42.622;23.194;2023-02-12T11:07:58;92221.66;;;4.89;74.97
5952;BME280;3001;42.622;23.194;2023-02-12T11:10:27;92226.00;;;5.15;75.41
5952;BME280;3001;42.622;23.194;2023-02-12T11:12:57;92226.44;;;5.38;73.13
5952;BME280;3001;42.622;23.194;2023-02-12T11:15:26;92230.31;;;5.41;71.88
5952;BME280;3001;42.622;23.194;2023-02-12T11:17:58;92235.56;;;5.51;71.89
5952;BME280;3001;42.622;23.194;2023-02-12T11:20:27;92231.66;;;5.48;71.67
5952;BME280;3001;42.622;23.194;2023-02-12T11:22:56;92239.75;;;5.30;72.95
5952;BME280;3001;42.622;23.194;2023-02-12T11:25:25;92220.50;;;5.38;72.69
5952;BME280;3001;42.622;23.194;2023-02-12T11:28:02;92233.78;;;5.51;72.05
5952;BME280;3001;42.622;23.194;2023-02-12T11:30:31;92233.78;;;5.51;71.73
5952;BME280;3001;42.622;23.194;2023-02-12T11:33:15;92230.53;;;5.66;71.79
5952;BME280;3001;42.622;23.194;2023-02-12T11:35:50;92242.91;;;5.69;71.85
5952;BME280;3001;42.622;23.194;2023-02-12T11:38:23;92236.72;;;5.70;71.32
5952;BME280;3001;42.622;23.194;2023-02-12T11:40:52;92238.56;;;5.74;71.49
5952;BME280;3001;42.622;23.194;2023-02-12T11:43:20;92238.25;;;5.66;71.95
5952;BME280;3001;42.622;23.194;2023-02-12T11:45:52;92236.72;;;5.70;72.24
5952;BME280;3001;42.622;23.194;2023-02-12T11:48:22;92235.72;;;5.71;71.23
5952;BME280;3001;42.622;23.194;2023-02-12T11:50:52;92235.31;;;5.84;71.15
5952;BME280;3001;42.622;23.194;2023-02-12T11:53:21;92233.00;;;5.87;71.10
5952;BME280;3001;42.622;23.194;2023-02-12T11:55:54;92234.56;;;5.88;71.08
5952;BME280;3001;42.622;23.194;2023-02-12T11:58:23;92234.13;;;6.01;70.12
5952;BME280;3001;42.622;23.194;2023-02-12T12:00:55;92228.66;;;5.93;70.34
5952;BME280;3001;42.622;23.194;2023-02-12T12:03:27;92234.03;;;5.91;70.79
5952;BME280;3001;42.622;23.194;2023-02-12T12:06:00;92246.91;;;5.86;71.40
5952;BME280;3001;42.622;23.194;2023-02-12T12:08:32;92237.19;;;5.93;71.53
5952;BME280;3001;42.622;23.194;2023-02-12T12:11:04;92237.91;;;5.89;71.09
5952;BME280;3001;42.622;23.194;2023-02-12T12:13:47;92228.63;;;5.88;70.60
5952;BME280;3001;42.622;23.194;2023-02-12T12:16:21;92247.22;;;5.90;71.05
5952;BME280;3001;42.622;23.194;2023-02-12T12:19:15;92248.53;;;5.92;71.75
5952;BME280;3001;42.622;23.194;2023-02-12T12:22:04;92247.94;;;5.85;70.93
5952;BME280;3001;42.622;23.194;2023-02-12T12:24:40;92246.66;;;5.83;71.16
5952;BME280;3001;42.622;23.194;2023-02-12T12:27:14;92251.91;;;5.66;71.53
5952;BME280;3001;42.622;23.194;2023-02-12T12:30:15;92244.47;;;5.70;71.40
5952;BME280;3001;42.622;23.194;2023-02-12T12:32:46;92243.97;;;5.73;71.82
5952;BME280;3001;42.622;23.194;2023-02-12T12:35:17;92243.66;;;5.69;71.90
5952;BME280;3001;42.622;23.194;2023-02-12T12:37:51;92250.88;;;5.67;72.03
5952;BME280;3001;42.622;23.194;2023-02-12T12:40:33;92257.66;;;5.73;71.52
5952;BME280;3001;42.622;23.194;2023-02-12T12:43:08;92249.41;;;5.76;71.19
5952;BME280;3001;42.622;23.194;2023-02-12T12:48:49;92257.50;;;5.85;71.94
5952;BME280;3001;42.622;23.194;2023-02-12T12:51:31;92264.44;;;5.84;71.90
5952;BME280;3001;42.622;23.194;2023-02-12T12:54:14;92260.31;;;5.83;71.57
5952;BME280;3001;42.622;23.194;2023-02-12T12:56:57;92263.69;;;5.84;70.90
5952;BME280;3001;42.622;23.194;2023-02-12T13:08:45;92280.03;;;5.68;71.59
5952;BME280;3001;42.622;23.194;2023-02-12T13:11:25;92279.72;;;5.64;71.51
5952;BME280;3001;42.622;23.194;2023-02-12T13:14:06;92290.13;;;5.43;71.87
5952;BME280;3001;42.622;23.194;2023-02-12T13:16:40;92289.41;;;5.21;73.47
5952;BME280;3001;42.622;23.194;2023-02-12T13:19:15;92284.00;;;5.22;73.57
5952;BME280;3001;42.622;23.194;2023-02-12T13:21:50;92283.50;;;5.25;73.42
5952;BME280;3001;42.622;23.194;2023-02-12T13:24:27;92280.75;;;5.32;73.53
5952;BME280;3001;42.622;23.194;2023-02-12T13:27:01;92278.91;;;5.27;74.20
5952;BME280;3001;42.622;23.194;2023-02-12T13:29:32;92285.59;;;5.28;74.06
5952;BME280;3001;42.622;23.194;2023-02-12T13:32:02;92281.72;;;5.26;73.66
5952;BME280;3001;42.622;23.194;2023-02-12T13:34:31;92286.63;;;5.27;74.12
5952;BME280;3001;42.622;23.194;2023-02-12T13:37:03;92292.38;;;5.34;73.75
5952;BME280;3001;42.622;23.194;2023-02-12T13:39:34;92287.94;;;5.30;73.93
5952;BME280;3001;42.622;23.194;2023-02-12T13:42:12;92287.31;;;5.18;74.41
5952;BME280;3001;42.622;23.194;2023-02-12T13:44:45;92286.91;;;5.31;74.37
5952;BME280;3001;42.622;23.194;2023-02-12T13:47:20;92278.47;;;5.35;74.17
5952;BME280;3001;42.622;23.194;2023-02-12T13:49:56;92291.94;;;5.47;73.74
5952;BME280;3001;42.622;23.194;2023-02-12T13:52:33;92295.63;;;5.51;73.06
5952;BME280;3001;42.622;23.194;2023-02-12T13:55:21;92298.47;;;5.55;73.62
5952;BME280;3001;42.622;23.194;2023-02-12T14:00:57;92302.16;;;5.95;72.02
5952;BME280;3001;42.622;23.194;2023-02-12T14:03:25;92234.63;;;5.62;70.82